sensor_id;sensor_type;location;lat;lon;timestamp;temperature;humidity
52899;DHT22;38763;53.096;6.062;2024-01-07T00:00:02;-0.10;99.90
52899;DHT22;38763;53.096;6.062;2024-01-07T00:02:28;-0.10;99.90
52899;DHT22;38763;53.096;6.062;2024-01-07T00:04:56;0.00;99.90
52899;DHT22;38763;53.096;6.062;2024-01-07T00:07:22;-0.10;99.90
52899;DHT22;38763;53.096;6.062;2024-01-07T00:09:47;-0.20;99.90
52899;DHT22;38763;53.096;6.062;2024-01-07T00:12:13;-0.10;99.90
52899;DHT22;38763;53.096;6.062;2024-01-07T00:14:39;-0.10;99.90
52899;DHT22;38763;53.096;6.062;2024-01-07T00:17:04;-0.10;99.90
52899;DHT22;38763;53.096;6.062;2024-01-07T00:19:30;-0.10;99.90
52899;DHT22;38763;53.096;6.062;2024-01-07T00:21:57;-0.20;99.90
52899;DHT22;38763;53.096;6.062;2024-01-07T00:24:24;-0.20;99.90
52899;DHT22;38763;53.096;6.062;2024-01-07T00:26:51;-0.20;99.90
52899;DHT22;38763;53.096;6.062;2024-01-07T00:29:17;-0.20;99.90
52899;DHT22;38763;53.096;6.062;2024-01-07T00:31:42;-0.20;99.90
52899;DHT22;38763;53.096;6.062;2024-01-07T00:34:08;-0.20;99.90
52899;DHT22;38763;53.096;6.062;2024-01-07T00:36:34;-0.20;99.90
52899;DHT22;38763;53.096;6.062;2024-01-07T00:38:59;-0.30;99.90
52899;DHT22;38763;53.096;6.062;2024-01-07T00:41:25;-0.30;99.90
52899;DHT22;38763;53.096;6.062;2024-01-07T00:43:50;-0.30;99.90
52899;DHT22;38763;53.096;6.062;2024-01-07T00:46:16;-0.40;99.90
52899;DHT22;38763;53.096;6.062;2024-01-07T00:48:42;-0.30;99.90
52899;DHT22;38763;53.096;6.062;2024-01-07T00:51:07;-0.40;99.90
52899;DHT22;38763;53.096;6.062;2024-01-07T00:53:33;-0.30;99.90
52899;DHT22;38763;53.096;6.062;2024-01-07T00:55:59;-0.40;99.90
52899;DHT22;38763;53.096;6.062;2024-01-07T00:58:24;-0.30;99.90
52899;DHT22;38763;53.096;6.062;2024-01-07T01:00:50;-0.40;99.90
52899;DHT22;38763;53.096;6.062;2024-01-07T01:03:16;-0.30;99.90
52899;DHT22;38763;53.096;6.062;2024-01-07T01:05:42;-0.40;99.90
52899;DHT22;38763;53.096;6.062;2024-01-07T01:08:07;-0.40;99.90
52899;DHT22;38763;53.096;6.062;2024-01-07T01:10:33;-0.40;99.90
52899;DHT22;38763;53.096;6.062;2024-01-07T01:12:59;-0.40;99.90
52899;DHT22;38763;53.096;6.062;2024-01-07T01:15:24;-0.40;99.90
52899;DHT22;38763;53.096;6.062;2024-01-07T01:17:50;-0.40;99.90
52899;DHT22;38763;53.096;6.062;2024-01-07T01:20:15;-0.40;99.90
52899;DHT22;38763;53.096;6.062;2024-01-07T01:22:41;-0.40;99.90
52899;DHT22;38763;53.096;6.062;2024-01-07T01:25:07;-0.40;99.90
52899;DHT22;38763;53.096;6.062;2024-01-07T01:27:33;-0.40;99.90
52899;DHT22;38763;53.096;6.062;2024-01-07T01:29:58;-0.40;99.90
52899;DHT22;38763;53.096;6.062;2024-01-07T01:32:24;-0.40;99.90
52899;DHT22;38763;53.096;6.062;2024-01-07T01:34:50;-0.40;99.90
52899;DHT22;38763;53.096;6.062;2024-01-07T01:37:15;-0.40;99.90
52899;DHT22;38763;53.096;6.062;2024-01-07T01:39:41;-0.40;99.90
52899;DHT22;38763;53.096;6.062;2024-01-07T01:42:07;-0.40;99.90
52899;DHT22;38763;53.096;6.062;2024-01-07T01:44:33;-0.50;99.90
52899;DHT22;38763;53.096;6.062;2024-01-07T01:47:00;-0.50;99.90
52899;DHT22;38763;53.096;6.062;2024-01-07T01:49:27;-0.50;99.90
52899;DHT22;38763;53.096;6.062;2024-01-07T01:51:53;-0.50;99.90
52899;DHT22;38763;53.096;6.062;2024-01-07T01:54:19;-0.50;99.90
52899;DHT22;38763;53.096;6.062;2024-01-07T01:56:46;-0.50;99.90
52899;DHT22;38763;53.096;6.062;2024-01-07T01:59:14;-0.50;99.90
52899;DHT22;38763;53.096;6.062;2024-01-07T02:01:40;-0.50;99.90
52899;DHT22;38763;53.096;6.062;2024-01-07T02:04:06;-0.40;99.90
52899;DHT22;38763;53.096;6.062;2024-01-07T02:06:32;-0.40;99.90
52899;DHT22;38763;53.096;6.062;2024-01-07T02:08:58;-0.40;99.90
52899;DHT22;38763;53.096;6.062;2024-01-07T02:11:23;-0.40;99.90
52899;DHT22;38763;53.096;6.062;2024-01-07T02:13:49;-0.40;99.90
52899;DHT22;38763;53.096;6.062;2024-01-07T02:16:15;-0.40;99.90
52899;DHT22;38763;53.096;6.062;2024-01-07T02:18:42;-0.30;99.90
52899;DHT22;38763;53.096;6.062;2024-01-07T02:21:09;-0.40;99.90
52899;DHT22;38763;53.096;6.062;2024-01-07T02:23:35;-0.40;99.90
52899;DHT22;38763;53.096;6.062;2024-01-07T02:26:00;-0.40;99.90
52899;DHT22;38763;53.096;6.062;2024-01-07T02:28:26;-0.40;99.90
52899;DHT22;38763;53.096;6.062;2024-01-07T02:30:52;-0.40;99.90
52899;DHT22;38763;53.096;6.062;2024-01-07T02:33:18;-0.40;99.90
52899;DHT22;38763;53.096;6.062;2024-01-07T02:35:43;-0.40;99.90
52899;DHT22;38763;53.096;6.062;2024-01-07T02:38:09;-0.40;99.90
52899;DHT22;38763;53.096;6.062;2024-01-07T02:40:34;-0.40;99.90
52899;DHT22;38763;53.096;6.062;2024-01-07T02:43:00;-0.40;99.90
52899;DHT22;38763;53.096;6.062;2024-01-07T02:45:26;-0.40;99.90
52899;DHT22;38763;53.096;6.062;2024-01-07T02:47:51;-0.40;99.90
52899;DHT22;38763;53.096;6.062;2024-01-07T02:50:17;-0.40;99.90
52899;DHT22;38763;53.096;6.062;2024-01-07T02:52:43;-0.40;99.90
52899;DHT22;38763;53.096;6.062;2024-01-07T02:55:08;-0.40;99.90
52899;DHT22;38763;53.096;6.062;2024-01-07T02:57:34;-0.40;99.90
52899;DHT22;38763;53.096;6.062;2024-01-07T03:00:00;-0.40;99.90
52899;DHT22;38763;53.096;6.062;2024-01-07T03:02:26;-0.40;99.90
52899;DHT22;38763;53.096;6.062;2024-01-07T03:04:51;-0.40;99.90
52899;DHT22;38763;53.096;6.062;2024-01-07T03:07:17;-0.40;99.90
52899;DHT22;38763;53.096;6.062;2024-01-07T03:09:43;-0.50;99.90
52899;DHT22;38763;53.096;6.062;2024-01-07T03:12:08;-0.40;99.90
52899;DHT22;38763;53.096;6.062;2024-01-07T03:14:34;-0.50;99.90
52899;DHT22;38763;53.096;6.062;2024-01-07T03:16:59;-0.50;99.90
52899;DHT22;38763;53.096;6.062;2024-01-07T03:19:25;-0.40;99.90
52899;DHT22;38763;53.096;6.062;2024-01-07T03:21:51;-0.40;99.90
52899;DHT22;38763;53.096;6.062;2024-01-07T03:24:16;-0.40;99.90
52899;DHT22;38763;53.096;6.062;2024-01-07T03:26:42;-0.40;99.90
52899;DHT22;38763;53.096;6.062;2024-01-07T03:29:08;-0.40;99.90
52899;DHT22;38763;53.096;6.062;2024-01-07T03:31:33;-0.40;99.90
52899;DHT22;38763;53.096;6.062;2024-01-07T03:33:59;-0.40;99.90
52899;DHT22;38763;53.096;6.062;2024-01-07T03:36:25;-0.40;99.90
52899;DHT22;38763;53.096;6.062;2024-01-07T03:38:50;-0.40;99.90
52899;DHT22;38763;53.096;6.062;2024-01-07T03:41:20;-0.40;99.90
52899;DHT22;38763;53.096;6.062;2024-01-07T03:43:46;-0.40;99.90
52899;DHT22;38763;53.096;6.062;2024-01-07T03:46:13;-0.40;99.90
52899;DHT22;38763;53.096;6.062;2024-01-07T03:48:40;-0.40;99.90
52899;DHT22;38763;53.096;6.062;2024-01-07T03:51:05;-0.40;99.90
52899;DHT22;38763;53.096;6.062;2024-01-07T03:53:31;-0.40;99.90
52899;DHT22;38763;53.096;6.062;2024-01-07T03:55:57;-0.40;99.90
52899;DHT22;38763;53.096;6.062;2024-01-07T03:58:23;-0.40;99.90
52899;DHT22;38763;53.096;6.062;2024-01-07T04:00:48;-0.40;99.90
52899;DHT22;38763;53.096;6.062;2024-01-07T04:03:14;-0.40;99.90
52899;DHT22;38763;53.096;6.062;2024-01-07T04:05:40;-0.40;99.90
52899;DHT22;38763;53.096;6.062;2024-01-07T04:08:05;-0.40;99.90
52899;DHT22;38763;53.096;6.062;2024-01-07T04:10:31;-0.40;99.90
52899;DHT22;38763;53.096;6.062;2024-01-07T04:12:57;-0.40;99.90
52899;DHT22;38763;53.096;6.062;2024-01-07T04:15:23;-0.40;99.90
52899;DHT22;38763;53.096;6.062;2024-01-07T04:17:49;-0.40;99.90
52899;DHT22;38763;53.096;6.062;2024-01-07T04:20:15;-0.40;99.90
52899;DHT22;38763;53.096;6.062;2024-01-07T04:22:40;-0.40;99.90
52899;DHT22;38763;53.096;6.062;2024-01-07T04:25:06;-0.40;99.90
52899;DHT22;38763;53.096;6.062;2024-01-07T04:27:37;-0.40;99.90
52899;DHT22;38763;53.096;6.062;2024-01-07T04:30:04;-0.40;99.90
52899;DHT22;38763;53.096;6.062;2024-01-07T04:32:30;-0.40;99.90
52899;DHT22;38763;53.096;6.062;2024-01-07T04:34:55;-0.40;99.90
52899;DHT22;38763;53.096;6.062;2024-01-07T04:37:23;-0.40;99.90
52899;DHT22;38763;53.096;6.062;2024-01-07T04:39:49;-0.50;99.90
52899;DHT22;38763;53.096;6.062;2024-01-07T04:42:16;-0.50;99.90
52899;DHT22;38763;53.096;6.062;2024-01-07T04:44:42;-0.40;99.90
52899;DHT22;38763;53.096;6.062;2024-01-07T04:47:27;-0.50;99.90
52899;DHT22;38763;53.096;6.062;2024-01-07T04:49:53;-0.40;99.90
52899;DHT22;38763;53.096;6.062;2024-01-07T04:52:19;-0.40;99.90
52899;DHT22;38763;53.096;6.062;2024-01-07T04:54:45;-0.40;99.90
52899;DHT22;38763;53.096;6.062;2024-01-07T04:57:10;-0.40;99.90
52899;DHT22;38763;53.096;6.062;2024-01-07T04:59:36;-0.50;99.90
52899;DHT22;38763;53.096;6.062;2024-01-07T05:02:03;-0.40;99.90
52899;DHT22;38763;53.096;6.062;2024-01-07T05:04:28;-0.40;99.90
52899;DHT22;38763;53.096;6.062;2024-01-07T05:06:54;-0.40;99.90
52899;DHT22;38763;53.096;6.062;2024-01-07T05:09:19;-0.40;99.90
52899;DHT22;38763;53.096;6.062;2024-01-07T05:11:45;-0.40;99.90
52899;DHT22;38763;53.096;6.062;2024-01-07T05:14:11;-0.40;99.90
52899;DHT22;38763;53.096;6.062;2024-01-07T05:16:40;-0.40;99.90
52899;DHT22;38763;53.096;6.062;2024-01-07T05:19:05;-0.40;99.90
52899;DHT22;38763;53.096;6.062;2024-01-07T05:21:31;-0.40;99.90
52899;DHT22;38763;53.096;6.062;2024-01-07T05:23:56;-0.40;99.90
52899;DHT22;38763;53.096;6.062;2024-01-07T05:26:22;-0.40;99.90
52899;DHT22;38763;53.096;6.062;2024-01-07T05:28:48;-0.40;99.90
52899;DHT22;38763;53.096;6.062;2024-01-07T05:31:18;-0.40;99.90
52899;DHT22;38763;53.096;6.062;2024-01-07T05:33:44;-0.40;99.90
52899;DHT22;38763;53.096;6.062;2024-01-07T05:36:13;-0.40;99.90
52899;DHT22;38763;53.096;6.062;2024-01-07T05:38:39;-0.40;99.90
52899;DHT22;38763;53.096;6.062;2024-01-07T05:41:06;-0.40;99.90
52899;DHT22;38763;53.096;6.062;2024-01-07T05:43:32;-0.40;99.90
52899;DHT22;38763;53.096;6.062;2024-01-07T05:45:57;-0.40;99.90
52899;DHT22;38763;53.096;6.062;2024-01-07T05:48:23;-0.40;99.90
52899;DHT22;38763;53.096;6.062;2024-01-07T05:50:49;-0.40;99.90
52899;DHT22;38763;53.096;6.062;2024-01-07T05:53:16;-0.40;99.90
52899;DHT22;38763;53.096;6.062;2024-01-07T05:55:41;-0.40;99.90
52899;DHT22;38763;53.096;6.062;2024-01-07T05:58:07;-0.40;99.90
52899;DHT22;38763;53.096;6.062;2024-01-07T06:00:33;-0.40;99.90
52899;DHT22;38763;53.096;6.062;2024-01-07T06:02:58;-0.40;99.90
52899;DHT22;38763;53.096;6.062;2024-01-07T06:05:24;-0.40;99.90
52899;DHT22;38763;53.096;6.062;2024-01-07T06:07:49;-0.40;99.90
52899;DHT22;38763;53.096;6.062;2024-01-07T06:10:15;-0.40;99.90
52899;DHT22;38763;53.096;6.062;2024-01-07T06:12:41;-0.40;99.90
52899;DHT22;38763;53.096;6.062;2024-01-07T06:15:07;-0.40;99.90
52899;DHT22;38763;53.096;6.062;2024-01-07T06:17:32;-0.30;99.90
52899;DHT22;38763;53.096;6.062;2024-01-07T06:19:58;-0.30;99.90
52899;DHT22;38763;53.096;6.062;2024-01-07T06:22:24;-0.30;99.90
52899;DHT22;38763;53.096;6.062;2024-01-07T06:24:49;-0.30;99.90
52899;DHT22;38763;53.096;6.062;2024-01-07T06:27:16;-0.30;99.90
52899;DHT22;38763;53.096;6.062;2024-01-07T06:29:41;-0.40;99.90
52899;DHT22;38763;53.096;6.062;2024-01-07T06:32:07;-0.30;99.90
52899;DHT22;38763;53.096;6.062;2024-01-07T06:34:33;-0.30;99.90
52899;DHT22;38763;53.096;6.062;2024-01-07T06:36:59;-0.30;99.90
52899;DHT22;38763;53.096;6.062;2024-01-07T06:39:25;-0.30;99.90
52899;DHT22;38763;53.096;6.062;2024-01-07T06:41:53;-0.30;99.90
52899;DHT22;38763;53.096;6.062;2024-01-07T06:44:19;-0.30;99.90
52899;DHT22;38763;53.096;6.062;2024-01-07T06:46:45;-0.30;44.10
52899;DHT22;38763;53.096;6.062;2024-01-07T06:49:10;-0.30;1.00
52899;DHT22;38763;53.096;6.062;2024-01-07T06:51:37;-0.30;99.90
52899;DHT22;38763;53.096;6.062;2024-01-07T06:54:03;-0.30;1.00
52899;DHT22;38763;53.096;6.062;2024-01-07T06:56:29;-0.20;1.00
52899;DHT22;38763;53.096;6.062;2024-01-07T06:58:55;-0.20;99.90
52899;DHT22;38763;53.096;6.062;2024-01-07T07:01:21;-0.20;5.00
52899;DHT22;38763;53.096;6.062;2024-01-07T07:03:47;-0.30;1.00
52899;DHT22;38763;53.096;6.062;2024-01-07T07:06:13;-0.30;1.00
52899;DHT22;38763;53.096;6.062;2024-01-07T07:08:38;-0.20;1.00
52899;DHT22;38763;53.096;6.062;2024-01-07T07:11:04;-0.30;1.00
52899;DHT22;38763;53.096;6.062;2024-01-07T07:13:30;-0.20;1.00
52899;DHT22;38763;53.096;6.062;2024-01-07T07:15:55;-0.20;1.00
52899;DHT22;38763;53.096;6.062;2024-01-07T07:18:21;-0.20;1.00
52899;DHT22;38763;53.096;6.062;2024-01-07T07:20:47;-0.20;1.00
52899;DHT22;38763;53.096;6.062;2024-01-07T07:23:13;-0.30;1.00
52899;DHT22;38763;53.096;6.062;2024-01-07T07:25:39;-0.30;1.00
52899;DHT22;38763;53.096;6.062;2024-01-07T07:28:05;-0.20;1.00
52899;DHT22;38763;53.096;6.062;2024-01-07T07:30:30;-0.30;99.90
52899;DHT22;38763;53.096;6.062;2024-01-07T07:32:56;-0.30;1.00
52899;DHT22;38763;53.096;6.062;2024-01-07T07:35:21;-0.30;1.00
52899;DHT22;38763;53.096;6.062;2024-01-07T07:37:47;-0.30;1.00
52899;DHT22;38763;53.096;6.062;2024-01-07T07:40:13;-0.30;99.90
52899;DHT22;38763;53.096;6.062;2024-01-07T07:42:39;-0.20;1.00
52899;DHT22;38763;53.096;6.062;2024-01-07T07:45:05;-0.30;99.90
52899;DHT22;38763;53.096;6.062;2024-01-07T07:47:31;-0.30;99.90
52899;DHT22;38763;53.096;6.062;2024-01-07T07:49:57;-0.30;99.90
52899;DHT22;38763;53.096;6.062;2024-01-07T07:52:22;-0.30;99.90
52899;DHT22;38763;53.096;6.062;2024-01-07T07:54:52;-0.40;99.90
52899;DHT22;38763;53.096;6.062;2024-01-07T07:57:21;-0.40;99.90
52899;DHT22;38763;53.096;6.062;2024-01-07T07:59:48;-0.40;99.90
52899;DHT22;38763;53.096;6.062;2024-01-07T08:02:14;-0.40;99.90
52899;DHT22;38763;53.096;6.062;2024-01-07T08:04:40;-0.40;99.90
52899;DHT22;38763;53.096;6.062;2024-01-07T08:07:09;-0.40;1.00
52899;DHT22;38763;53.096;6.062;2024-01-07T08:09:35;-0.50;99.90
52899;DHT22;38763;53.096;6.062;2024-01-07T08:12:04;-0.50;1.00
52899;DHT22;38763;53.096;6.062;2024-01-07T08:14:31;-0.60;99.90
52899;DHT22;38763;53.096;6.062;2024-01-07T08:16:57;-0.60;99.90
52899;DHT22;38763;53.096;6.062;2024-01-07T08:19:22;-0.70;99.90
52899;DHT22;38763;53.096;6.062;2024-01-07T08:21:48;-0.70;99.90
52899;DHT22;38763;53.096;6.062;2024-01-07T08:24:14;-0.70;99.90
52899;DHT22;38763;53.096;6.062;2024-01-07T08:26:39;-0.70;99.90
52899;DHT22;38763;53.096;6.062;2024-01-07T08:29:05;-0.80;99.90
52899;DHT22;38763;53.096;6.062;2024-01-07T08:31:31;-0.80;99.90
52899;DHT22;38763;53.096;6.062;2024-01-07T08:33:58;-0.80;99.90
52899;DHT22;38763;53.096;6.062;2024-01-07T08:36:23;-0.80;99.90
52899;DHT22;38763;53.096;6.062;2024-01-07T08:38:49;-0.80;99.90
52899;DHT22;38763;53.096;6.062;2024-01-07T08:41:15;-0.80;99.90
52899;DHT22;38763;53.096;6.062;2024-01-07T08:43:41;-0.90;99.90
52899;DHT22;38763;53.096;6.062;2024-01-07T08:46:07;-0.80;99.90
52899;DHT22;38763;53.096;6.062;2024-01-07T08:48:33;-0.80;99.90
52899;DHT22;38763;53.096;6.062;2024-01-07T08:50:58;-0.80;99.90
52899;DHT22;38763;53.096;6.062;2024-01-07T08:53:24;-0.80;99.90
52899;DHT22;38763;53.096;6.062;2024-01-07T08:55:50;-0.80;99.90
52899;DHT22;38763;53.096;6.062;2024-01-07T08:58:16;-0.80;99.90
52899;DHT22;38763;53.096;6.062;2024-01-07T09:00:42;-0.80;99.90
52899;DHT22;38763;53.096;6.062;2024-01-07T09:03:09;-0.70;99.90
52899;DHT22;38763;53.096;6.062;2024-01-07T09:05:34;-0.70;99.90
52899;DHT22;38763;53.096;6.062;2024-01-07T09:08:00;-0.50;1.00
52899;DHT22;38763;53.096;6.062;2024-01-07T09:10:26;-0.50;99.90
52899;DHT22;38763;53.096;6.062;2024-01-07T09:12:52;-0.40;83.00
52899;DHT22;38763;53.096;6.062;2024-01-07T09:15:19;-0.40;79.40
52899;DHT22;38763;53.096;6.062;2024-01-07T09:17:46;-0.40;99.90
52899;DHT22;38763;53.096;6.062;2024-01-07T09:20:12;-0.40;47.50
52899;DHT22;38763;53.096;6.062;2024-01-07T09:22:38;-0.30;1.00
52899;DHT22;38763;53.096;6.062;2024-01-07T09:25:05;-0.20;1.00
52899;DHT22;38763;53.096;6.062;2024-01-07T09:27:32;-0.30;99.90
52899;DHT22;38763;53.096;6.062;2024-01-07T09:29:58;-0.20;99.90
52899;DHT22;38763;53.096;6.062;2024-01-07T09:32:24;-0.20;1.00
52899;DHT22;38763;53.096;6.062;2024-01-07T09:34:50;-0.20;1.00
52899;DHT22;38763;53.096;6.062;2024-01-07T09:37:16;-0.10;99.90
52899;DHT22;38763;53.096;6.062;2024-01-07T09:39:42;-0.20;1.00
52899;DHT22;38763;53.096;6.062;2024-01-07T09:42:13;-0.20;1.00
52899;DHT22;38763;53.096;6.062;2024-01-07T09:44:40;-0.10;1.00
52899;DHT22;38763;53.096;6.062;2024-01-07T09:47:07;-0.10;99.90
52899;DHT22;38763;53.096;6.062;2024-01-07T09:49:35;-0.10;1.00
52899;DHT22;38763;53.096;6.062;2024-01-07T09:52:00;-0.10;99.90
52899;DHT22;38763;53.096;6.062;2024-01-07T09:54:28;-0.10;99.90
52899;DHT22;38763;53.096;6.062;2024-01-07T09:57:01;0.00;99.90
52899;DHT22;38763;53.096;6.062;2024-01-07T09:59:28;0.00;1.00
52899;DHT22;38763;53.096;6.062;2024-01-07T10:01:55;0.00;99.90
52899;DHT22;38763;53.096;6.062;2024-01-07T10:04:21;0.00;1.00
52899;DHT22;38763;53.096;6.062;2024-01-07T10:06:47;0.00;99.90
52899;DHT22;38763;53.096;6.062;2024-01-07T10:09:16;0.00;1.00
52899;DHT22;38763;53.096;6.062;2024-01-07T10:11:43;0.10;1.00
52899;DHT22;38763;53.096;6.062;2024-01-07T10:14:09;0.10;1.00
52899;DHT22;38763;53.096;6.062;2024-01-07T10:16:36;0.10;1.00
52899;DHT22;38763;53.096;6.062;2024-01-07T10:19:01;0.10;99.90
52899;DHT22;38763;53.096;6.062;2024-01-07T10:21:27;0.10;99.90
52899;DHT22;38763;53.096;6.062;2024-01-07T10:24:10;0.10;1.00
52899;DHT22;38763;53.096;6.062;2024-01-07T10:26:39;0.10;1.00
52899;DHT22;38763;53.096;6.062;2024-01-07T10:29:06;0.20;1.00
52899;DHT22;38763;53.096;6.062;2024-01-07T10:31:32;0.20;99.90
52899;DHT22;38763;53.096;6.062;2024-01-07T10:33:58;0.20;1.00
52899;DHT22;38763;53.096;6.062;2024-01-07T10:36:24;0.20;1.00
52899;DHT22;38763;53.096;6.062;2024-01-07T10:38:51;0.20;99.90
52899;DHT22;38763;53.096;6.062;2024-01-07T10:41:20;0.20;1.00
52899;DHT22;38763;53.096;6.062;2024-01-07T10:43:47;0.30;1.00
52899;DHT22;38763;53.096;6.062;2024-01-07T10:46:14;0.20;1.00
52899;DHT22;38763;53.096;6.062;2024-01-07T10:48:53;0.30;1.00
52899;DHT22;38763;53.096;6.062;2024-01-07T10:51:20;0.20;99.90
52899;DHT22;38763;53.096;6.062;2024-01-07T10:53:52;0.30;1.00
52899;DHT22;38763;53.096;6.062;2024-01-07T10:56:24;0.30;1.00
52899;DHT22;38763;53.096;6.062;2024-01-07T10:58:54;0.30;99.90
52899;DHT22;38763;53.096;6.062;2024-01-07T11:01:20;0.30;99.90
52899;DHT22;38763;53.096;6.062;2024-01-07T11:04:08;0.40;99.90
52899;DHT22;38763;53.096;6.062;2024-01-07T11:09:21;0.40;1.00
52899;DHT22;38763;53.096;6.062;2024-01-07T11:11:49;0.40;1.00
52899;DHT22;38763;53.096;6.062;2024-01-07T11:14:34;0.50;1.00
52899;DHT22;38763;53.096;6.062;2024-01-07T11:17:01;0.40;97.60
52899;DHT22;38763;53.096;6.062;2024-01-07T11:19:28;0.30;1.00
52899;DHT22;38763;53.096;6.062;2024-01-07T11:21:53;0.30;1.00
52899;DHT22;38763;53.096;6.062;2024-01-07T11:24:39;0.30;1.00
52899;DHT22;38763;53.096;6.062;2024-01-07T11:27:08;0.30;1.00
52899;DHT22;38763;53.096;6.062;2024-01-07T11:29:35;0.30;99.90
52899;DHT22;38763;53.096;6.062;2024-01-07T11:32:01;0.30;1.00
52899;DHT22;38763;53.096;6.062;2024-01-07T11:34:40;0.30;99.90
52899;DHT22;38763;53.096;6.062;2024-01-07T11:37:13;0.30;99.90
52899;DHT22;38763;53.096;6.062;2024-01-07T11:39:45;0.30;99.90
52899;DHT22;38763;53.096;6.062;2024-01-07T11:42:11;0.50;99.90
52899;DHT22;38763;53.096;6.062;2024-01-07T11:44:58;0.40;99.90
52899;DHT22;38763;53.096;6.062;2024-01-07T11:47:24;0.40;99.90
52899;DHT22;38763;53.096;6.062;2024-01-07T11:49:54;0.40;99.90
52899;DHT22;38763;53.096;6.062;2024-01-07T11:52:20;0.40;99.90
52899;DHT22;38763;53.096;6.062;2024-01-07T11:54:47;0.50;99.90
52899;DHT22;38763;53.096;6.062;2024-01-07T11:57:13;0.50;99.90
52899;DHT22;38763;53.096;6.062;2024-01-07T11:59:39;0.50;99.90
52899;DHT22;38763;53.096;6.062;2024-01-07T12:02:05;0.50;99.90
52899;DHT22;38763;53.096;6.062;2024-01-07T12:04:31;0.50;99.90
52899;DHT22;38763;53.096;6.062;2024-01-07T12:06:57;0.50;99.90
52899;DHT22;38763;53.096;6.062;2024-01-07T12:09:24;0.50;99.90
52899;DHT22;38763;53.096;6.062;2024-01-07T12:11:49;0.50;99.90
52899;DHT22;38763;53.096;6.062;2024-01-07T12:14:15;0.50;99.90
52899;DHT22;38763;53.096;6.062;2024-01-07T12:16:41;0.50;99.90
52899;DHT22;38763;53.096;6.062;2024-01-07T12:19:08;0.50;1.00
52899;DHT22;38763;53.096;6.062;2024-01-07T12:21:38;0.50;1.00
52899;DHT22;38763;53.096;6.062;2024-01-07T12:24:04;0.60;1.00
52899;DHT22;38763;53.096;6.062;2024-01-07T12:26:30;0.50;1.00
52899;DHT22;38763;53.096;6.062;2024-01-07T12:28:59;0.50;1.00
52899;DHT22;38763;53.096;6.062;2024-01-07T12:31:32;0.40;99.50
52899;DHT22;38763;53.096;6.062;2024-01-07T12:33:58;0.40;99.90
52899;DHT22;38763;53.096;6.062;2024-01-07T12:36:24;0.40;99.90
52899;DHT22;38763;53.096;6.062;2024-01-07T12:38:51;0.30;73.40
52899;DHT22;38763;53.096;6.062;2024-01-07T12:41:20;0.40;99.90
52899;DHT22;38763;53.096;6.062;2024-01-07T12:43:46;0.40;99.90
52899;DHT22;38763;53.096;6.062;2024-01-07T12:46:11;0.40;99.90
52899;DHT22;38763;53.096;6.062;2024-01-07T12:48:37;0.40;99.90
52899;DHT22;38763;53.096;6.062;2024-01-07T12:51:03;0.50;99.90
52899;DHT22;38763;53.096;6.062;2024-01-07T12:53:28;0.50;99.90
52899;DHT22;38763;53.096;6.062;2024-01-07T12:55:54;0.50;99.90
52899;DHT22;38763;53.096;6.062;2024-01-07T12:58:20;0.50;99.90
52899;DHT22;38763;53.096;6.062;2024-01-07T13:00:46;0.50;78.10
52899;DHT22;38763;53.096;6.062;2024-01-07T13:03:12;0.50;99.90
52899;DHT22;38763;53.096;6.062;2024-01-07T13:05:45;0.40;99.90
52899;DHT22;38763;53.096;6.062;2024-01-07T13:08:17;0.40;99.90
52899;DHT22;38763;53.096;6.062;2024-01-07T13:10:44;0.40;99.90
52899;DHT22;38763;53.096;6.062;2024-01-07T13:13:11;0.50;99.90
52899;DHT22;38763;53.096;6.062;2024-01-07T13:15:38;0.40;99.90
52899;DHT22;38763;53.096;6.062;2024-01-07T13:18:04;0.40;99.90
52899;DHT22;38763;53.096;6.062;2024-01-07T13:20:30;0.40;99.90
52899;DHT22;38763;53.096;6.062;2024-01-07T13:22:55;0.40;97.60
52899;DHT22;38763;53.096;6.062;2024-01-07T13:25:21;0.40;99.90
52899;DHT22;38763;53.096;6.062;2024-01-07T13:27:46;0.40;99.90
52899;DHT22;38763;53.096;6.062;2024-01-07T13:30:12;0.40;99.90
52899;DHT22;38763;53.096;6.062;2024-01-07T13:32:38;0.40;99.90
52899;DHT22;38763;53.096;6.062;2024-01-07T13:35:04;0.40;99.90
52899;DHT22;38763;53.096;6.062;2024-01-07T13:37:30;0.40;99.90
52899;DHT22;38763;53.096;6.062;2024-01-07T13:39:58;0.40;99.90
52899;DHT22;38763;53.096;6.062;2024-01-07T13:42:24;0.40;1.00
52899;DHT22;38763;53.096;6.062;2024-01-07T13:44:50;0.40;99.90
52899;DHT22;38763;53.096;6.062;2024-01-07T13:47:16;0.40;99.90
52899;DHT22;38763;53.096;6.062;2024-01-07T13:49:42;0.50;99.90
52899;DHT22;38763;53.096;6.062;2024-01-07T13:52:08;0.40;99.90
52899;DHT22;38763;53.096;6.062;2024-01-07T13:54:35;0.40;99.90
52899;DHT22;38763;53.096;6.062;2024-01-07T13:57:01;0.40;99.90
52899;DHT22;38763;53.096;6.062;2024-01-07T13:59:26;0.30;99.90
52899;DHT22;38763;53.096;6.062;2024-01-07T14:01:53;0.30;99.90
52899;DHT22;38763;53.096;6.062;2024-01-07T14:04:19;0.20;99.90
52899;DHT22;38763;53.096;6.062;2024-01-07T14:06:44;0.20;99.90
52899;DHT22;38763;53.096;6.062;2024-01-07T14:09:12;0.10;99.90
52899;DHT22;38763;53.096;6.062;2024-01-07T14:11:38;0.10;99.90
52899;DHT22;38763;53.096;6.062;2024-01-07T14:14:03;0.10;99.90
52899;DHT22;38763;53.096;6.062;2024-01-07T14:16:29;0.10;99.90
52899;DHT22;38763;53.096;6.062;2024-01-07T14:18:55;0.10;99.90
52899;DHT22;38763;53.096;6.062;2024-01-07T14:21:20;0.10;99.90
52899;DHT22;38763;53.096;6.062;2024-01-07T14:23:48;0.10;99.90
52899;DHT22;38763;53.096;6.062;2024-01-07T14:26:13;0.10;99.90
52899;DHT22;38763;53.096;6.062;2024-01-07T14:28:40;0.10;99.90
52899;DHT22;38763;53.096;6.062;2024-01-07T14:31:06;0.10;99.90
52899;DHT22;38763;53.096;6.062;2024-01-07T14:33:32;0.10;99.90
52899;DHT22;38763;53.096;6.062;2024-01-07T14:35:58;0.10;99.90
52899;DHT22;38763;53.096;6.062;2024-01-07T14:38:23;0.00;1.00
52899;DHT22;38763;53.096;6.062;2024-01-07T14:40:50;0.00;1.00
52899;DHT22;38763;53.096;6.062;2024-01-07T14:43:17;0.00;1.00
52899;DHT22;38763;53.096;6.062;2024-01-07T14:45:43;0.00;1.00
52899;DHT22;38763;53.096;6.062;2024-01-07T14:48:08;-0.10;1.00
52899;DHT22;38763;53.096;6.062;2024-01-07T14:50:34;-0.10;1.00
52899;DHT22;38763;53.096;6.062;2024-01-07T14:53:00;-0.10;1.00
52899;DHT22;38763;53.096;6.062;2024-01-07T14:55:26;-0.10;1.00
52899;DHT22;38763;53.096;6.062;2024-01-07T14:57:52;-0.10;1.00
52899;DHT22;38763;53.096;6.062;2024-01-07T15:00:17;-0.20;1.00
52899;DHT22;38763;53.096;6.062;2024-01-07T15:02:43;-0.20;1.00
52899;DHT22;38763;53.096;6.062;2024-01-07T15:05:09;-0.20;1.00
52899;DHT22;38763;53.096;6.062;2024-01-07T15:07:34;-0.30;2.90
52899;DHT22;38763;53.096;6.062;2024-01-07T15:10:00;-0.30;15.50
52899;DHT22;38763;53.096;6.062;2024-01-07T15:12:26;-0.30;17.20
52899;DHT22;38763;53.096;6.062;2024-01-07T15:15:02;-0.30;53.60
52899;DHT22;38763;53.096;6.062;2024-01-07T15:17:30;-0.30;71.00
52899;DHT22;38763;53.096;6.062;2024-01-07T15:19:55;-0.40;87.40
52899;DHT22;38763;53.096;6.062;2024-01-07T15:22:21;-0.40;93.30
52899;DHT22;38763;53.096;6.062;2024-01-07T15:24:46;-0.50;99.90
52899;DHT22;38763;53.096;6.062;2024-01-07T15:27:12;-0.50;99.90
52899;DHT22;38763;53.096;6.062;2024-01-07T15:29:38;-0.50;99.90
52899;DHT22;38763;53.096;6.062;2024-01-07T15:32:03;-0.50;99.90
52899;DHT22;38763;53.096;6.062;2024-01-07T15:34:29;-0.60;99.90